createdAt,value
2022-12-31T00:00:22.227Z,70.31
2022-12-31T00:03:10.123Z,70.41
2022-12-31T00:05:37.737Z,70.40
2022-12-31T00:08:04.960Z,70.44
2022-12-31T00:10:34.285Z,70.43
2022-12-31T00:13:01.358Z,70.51
2022-12-31T00:15:28.731Z,70.30
2022-12-31T00:17:55.893Z,70.33
2022-12-31T00:20:22.997Z,70.48
2022-12-31T00:22:50.550Z,70.60
2022-12-31T00:25:17.704Z,70.38
2022-12-31T00:27:44.830Z,70.45
2022-12-31T00:30:12.598Z,70.50
2022-12-31T00:32:39.636Z,70.39
2022-12-31T00:35:07.487Z,70.49
2022-12-31T00:37:34.623Z,70.38
2022-12-31T00:40:01.784Z,70.29
2022-12-31T00:42:28.989Z,70.49
2022-12-31T00:44:56.005Z,70.58
2022-12-31T00:47:24.727Z,70.49
2022-12-31T00:49:52.073Z,70.40
2022-12-31T00:52:19.351Z,70.46
2022-12-31T00:54:46.476Z,70.67
2022-12-31T00:57:13.989Z,70.49
2022-12-31T00:59:41.496Z,70.43
2022-12-31T01:02:08.821Z,70.56
2022-12-31T01:04:36.030Z,70.59
2022-12-31T01:07:03.152Z,70.55
2022-12-31T01:09:30.199Z,70.56
2022-12-31T01:11:57.328Z,70.50
2022-12-31T01:14:24.451Z,70.55
2022-12-31T01:16:53.484Z,70.54
2022-12-31T01:19:23.868Z,70.45
2022-12-31T01:21:51.767Z,70.68
2022-12-31T01:24:19.698Z,70.66
2022-12-31T01:26:47.274Z,70.62
2022-12-31T01:29:14.788Z,70.72
2022-12-31T01:31:41.849Z,70.60
2022-12-31T01:34:09.851Z,70.76
2022-12-31T01:36:38.146Z,70.68
2022-12-31T01:39:07.472Z,70.68
2022-12-31T01:41:41.724Z,70.58
2022-12-31T01:44:11.835Z,70.71
2022-12-31T01:46:58.484Z,70.65
2022-12-31T01:49:36.703Z,70.56
2022-12-31T01:52:06.528Z,70.73
2022-12-31T01:54:38.044Z,70.67
2022-12-31T01:57:06.986Z,70.78
2022-12-31T01:59:34.538Z,70.77
2022-12-31T02:02:02.162Z,70.81
2022-12-31T02:04:29.871Z,70.66
2022-12-31T02:07:02.784Z,70.72
2022-12-31T02:09:31.608Z,70.70
2022-12-31T02:11:58.707Z,70.63
2022-12-31T02:14:29.228Z,70.87
2022-12-31T02:17:02.479Z,70.88
2022-12-31T02:20:05.259Z,70.70
2022-12-31T02:22:41.270Z,70.72
2022-12-31T02:25:52.596Z,70.68
2022-12-31T02:28:25.766Z,70.87
2022-12-31T02:31:06.422Z,70.74
2022-12-31T02:33:43.040Z,70.78
2022-12-31T02:36:17.451Z,70.78
2022-12-31T02:38:47.654Z,70.81
2022-12-31T02:41:37.101Z,70.82
2022-12-31T02:44:27.524Z,70.76
2022-12-31T02:47:09.767Z,70.82
2022-12-31T02:50:02.595Z,70.93
2022-12-31T02:52:50.414Z,70.87
2022-12-31T02:55:26.779Z,70.92
2022-12-31T02:57:59.897Z,70.78
2022-12-31T03:00:48.216Z,70.76
2022-12-31T03:03:15.396Z,70.88
2022-12-31T03:05:45.064Z,70.88
2022-12-31T03:08:12.124Z,70.92
2022-12-31T03:10:39.430Z,70.86
2022-12-31T03:13:06.507Z,70.85
2022-12-31T03:15:34.647Z,70.88
2022-12-31T03:18:01.704Z,70.99
2022-12-31T03:20:57.332Z,70.89
2022-12-31T03:23:28.411Z,70.88
2022-12-31T03:25:57.151Z,70.88
2022-12-31T03:28:26.554Z,70.96
2022-12-31T03:30:56.679Z,71.01
2022-12-31T03:33:24.431Z,71.03
2022-12-31T03:35:53.081Z,70.98
2022-12-31T03:38:20.990Z,70.93
2022-12-31T03:40:50.858Z,71.12
2022-12-31T03:43:19.671Z,71.02
2022-12-31T03:45:58.385Z,70.97
2022-12-31T03:48:26.383Z,70.89
2022-12-31T03:50:53.470Z,71.16
2022-12-31T03:53:20.621Z,71.16
2022-12-31T03:55:52.279Z,70.97
2022-12-31T03:58:19.419Z,71.09
2022-12-31T04:00:46.520Z,71.10
2022-12-31T04:03:13.660Z,71.07
2022-12-31T04:05:41.388Z,71.11
2022-12-31T04:08:08.493Z,71.22
2022-12-31T04:10:35.552Z,71.25
2022-12-31T04:13:04.827Z,71.25
2022-12-31T04:15:32.420Z,71.26
2022-12-31T04:17:59.491Z,71.19
2022-12-31T04:20:26.550Z,71.26
2022-12-31T04:22:53.606Z,71.17
2022-12-31T04:25:20.691Z,71.36
2022-12-31T04:27:47.936Z,71.29
2022-12-31T04:30:15.482Z,71.53
2022-12-31T04:32:42.916Z,71.46
2022-12-31T04:35:11.728Z,71.46
2022-12-31T04:37:39.260Z,71.62
2022-12-31T04:40:07.767Z,71.67
2022-12-31T04:42:36.277Z,71.70
2022-12-31T04:45:04.395Z,71.84
2022-12-31T04:47:31.468Z,71.78
2022-12-31T04:49:58.593Z,71.88
2022-12-31T04:52:25.675Z,72.03
2022-12-31T04:54:52.997Z,71.91
2022-12-31T04:57:20.126Z,71.98
2022-12-31T04:59:47.424Z,71.91
2022-12-31T05:02:15.158Z,72.20
2022-12-31T05:04:43.801Z,72.32
2022-12-31T05:07:10.927Z,72.22
2022-12-31T05:09:37.999Z,72.15
2022-12-31T05:12:05.453Z,72.12
2022-12-31T05:14:32.530Z,72.25
2022-12-31T05:17:01.344Z,72.28
2022-12-31T05:19:28.455Z,72.14
2022-12-31T05:22:14.156Z,72.20
2022-12-31T05:24:41.262Z,72.29
2022-12-31T05:27:08.332Z,72.35
2022-12-31T05:29:35.376Z,72.44
2022-12-31T05:32:02.453Z,72.39
2022-12-31T05:34:29.606Z,72.38
2022-12-31T05:36:56.728Z,72.31
2022-12-31T05:39:23.800Z,72.38
2022-12-31T05:41:51.727Z,72.36
2022-12-31T05:44:18.855Z,72.53
2022-12-31T05:46:47.241Z,72.39
2022-12-31T05:49:14.558Z,72.40
2022-12-31T05:51:41.728Z,72.39
2022-12-31T05:54:08.758Z,72.36
2022-12-31T05:56:36.852Z,72.22
2022-12-31T05:59:04.205Z,72.46
2022-12-31T06:01:31.377Z,72.33
2022-12-31T06:03:58.767Z,72.48
2022-12-31T06:06:26.141Z,72.32
2022-12-31T06:08:53.757Z,72.33
2022-12-31T06:11:20.856Z,72.42
2022-12-31T06:13:48.009Z,72.51
2022-12-31T06:16:15.178Z,72.46
2022-12-31T06:18:42.358Z,72.40
2022-12-31T06:21:09.401Z,72.61
2022-12-31T06:23:36.427Z,72.40
2022-12-31T06:26:06.702Z,72.38
2022-12-31T06:28:33.882Z,72.55
2022-12-31T06:31:03.279Z,72.58
2022-12-31T06:33:30.555Z,72.55
2022-12-31T06:36:02.766Z,72.55
2022-12-31T06:38:31.361Z,72.49
2022-12-31T06:40:58.516Z,72.43
2022-12-31T06:43:25.614Z,72.47
2022-12-31T06:45:52.638Z,72.51
2022-12-31T06:48:19.837Z,72.57
2022-12-31T06:50:46.967Z,72.49
2022-12-31T06:53:14.188Z,72.64
2022-12-31T06:55:42.279Z,72.56
2022-12-31T06:58:13.890Z,72.41
2022-12-31T07:00:58.003Z,72.54
2022-12-31T07:03:42.116Z,72.75
2022-12-31T07:06:21.834Z,72.64
2022-12-31T07:09:14.096Z,72.70
2022-12-31T07:11:54.534Z,72.70
2022-12-31T07:14:37.711Z,72.62
2022-12-31T07:17:16.947Z,72.82
2022-12-31T07:19:57.906Z,72.63
2022-12-31T07:22:25.613Z,72.78
2022-12-31T07:24:53.068Z,72.73
2022-12-31T07:27:36.095Z,72.89
2022-12-31T07:30:18.036Z,72.85
2022-12-31T07:33:19.131Z,72.80
2022-12-31T07:35:55.447Z,72.91
2022-12-31T07:38:34.787Z,73.01
2022-12-31T07:41:27.205Z,73.06
2022-12-31T07:44:35.802Z,72.89
2022-12-31T07:47:06.005Z,73.02
2022-12-31T07:49:34.070Z,72.81
2022-12-31T07:52:02.557Z,73.00
2022-12-31T07:54:29.655Z,72.78
2022-12-31T07:56:57.856Z,72.90
2022-12-31T07:59:44.661Z,73.01
2022-12-31T08:02:40.351Z,72.89
2022-12-31T08:05:33.955Z,72.88
2022-12-31T08:08:09.472Z,72.98
2022-12-31T08:10:54.991Z,72.83
2022-12-31T08:13:22.218Z,72.91
2022-12-31T08:15:49.586Z,72.99
2022-12-31T08:18:16.931Z,73.06
2022-12-31T08:21:20.712Z,73.01
2022-12-31T08:24:05.372Z,73.03
2022-12-31T08:26:49.465Z,73.09
2022-12-31T08:29:38.400Z,73.11
2022-12-31T08:32:08.982Z,73.11
2022-12-31T08:35:08.397Z,73.03
2022-12-31T08:37:42.014Z,73.09
2022-12-31T08:40:28.599Z,73.15
2022-12-31T08:43:21.651Z,72.95
2022-12-31T08:45:51.352Z,72.95
2022-12-31T08:48:33.599Z,72.99
2022-12-31T08:51:01.098Z,73.28
2022-12-31T08:53:28.437Z,73.14
2022-12-31T08:56:06.866Z,73.07
2022-12-31T08:59:08.199Z,73.11
2022-12-31T09:02:08.810Z,73.30
2022-12-31T09:04:58.026Z,73.30
2022-12-31T09:07:56.687Z,73.21
2022-12-31T09:11:07.750Z,73.31
2022-12-31T09:13:52.587Z,73.30
2022-12-31T09:16:22.582Z,73.25
2022-12-31T09:18:49.883Z,73.18
2022-12-31T09:21:17.057Z,73.36
2022-12-31T09:23:44.479Z,73.25
2022-12-31T09:26:30.407Z,73.29
2022-12-31T09:29:08.810Z,73.34
2022-12-31T09:31:35.865Z,73.31
2022-12-31T09:34:24.396Z,73.50
2022-12-31T09:36:57.716Z,73.38
2022-12-31T09:39:42.277Z,73.34
2022-12-31T09:42:18.659Z,73.28
2022-12-31T09:45:01.098Z,73.32
2022-12-31T09:47:49.197Z,73.40
2022-12-31T09:50:22.205Z,73.61
2022-12-31T09:53:08.095Z,73.50
2022-12-31T09:55:43.337Z,73.48
2022-12-31T09:58:38.289Z,73.36
2022-12-31T10:01:23.639Z,73.52
2022-12-31T10:03:53.730Z,73.54
2022-12-31T10:06:32.435Z,73.50
2022-12-31T10:09:02.532Z,73.49
2022-12-31T10:11:57.333Z,73.42
2022-12-31T10:15:05.747Z,73.46
2022-12-31T10:17:51.759Z,73.62
2022-12-31T10:20:54.397Z,73.58
2022-12-31T10:23:27.364Z,73.45
2022-12-31T10:26:00.241Z,73.59
2022-12-31T10:28:55.402Z,73.70
2022-12-31T10:32:00.617Z,73.68
2022-12-31T10:34:36.932Z,73.61
2022-12-31T10:37:16.375Z,73.50
2022-12-31T10:39:54.761Z,73.61
2022-12-31T10:42:56.071Z,73.69
2022-12-31T10:45:48.076Z,73.72
2022-12-31T10:48:33.716Z,73.68
2022-12-31T10:51:25.694Z,73.68
2022-12-31T10:54:14.807Z,73.74
2022-12-31T10:56:53.964Z,73.50
2022-12-31T10:59:58.076Z,73.81
2022-12-31T11:02:40.836Z,73.65
2022-12-31T11:05:23.534Z,73.88
2022-12-31T11:07:51.909Z,73.84
2022-12-31T11:10:40.312Z,73.90
2022-12-31T11:13:45.128Z,73.89
2022-12-31T11:16:32.658Z,73.93
2022-12-31T11:19:12.047Z,73.94
2022-12-31T11:21:41.360Z,74.00
2022-12-31T11:24:47.567Z,74.01
2022-12-31T11:27:33.084Z,73.97
2022-12-31T11:30:42.023Z,73.96
2022-12-31T11:33:45.451Z,74.15
2022-12-31T11:36:35.992Z,74.13
2022-12-31T11:39:42.233Z,74.10
2022-12-31T11:42:24.836Z,74.44
2022-12-31T11:45:01.503Z,74.42
2022-12-31T11:47:44.745Z,74.17
2022-12-31T11:50:37.137Z,74.36
2022-12-31T11:53:26.316Z,74.42
2022-12-31T11:56:15.893Z,74.47
2022-12-31T11:58:47.743Z,74.50
2022-12-31T12:01:22.455Z,74.52
2022-12-31T12:03:49.818Z,74.43
2022-12-31T12:06:29.006Z,74.43
2022-12-31T12:09:01.749Z,74.51
2022-12-31T12:11:32.245Z,74.56
2022-12-31T12:13:59.269Z,74.73
2022-12-31T12:16:28.453Z,74.63
2022-12-31T12:19:08.521Z,74.72
2022-12-31T12:21:46.263Z,74.57
2022-12-31T12:24:27.908Z,74.69
2022-12-31T12:26:57.441Z,74.65
2022-12-31T12:29:29.238Z,74.65
2022-12-31T12:31:57.656Z,74.82
2022-12-31T12:34:29.243Z,74.78
2022-12-31T12:36:56.686Z,74.67
2022-12-31T12:39:29.325Z,74.72
2022-12-31T12:42:00.532Z,74.67
2022-12-31T12:44:27.987Z,74.81
2022-12-31T12:46:56.244Z,74.91
2022-12-31T12:49:26.726Z,74.75
2022-12-31T12:52:06.219Z,74.64
2022-12-31T12:54:53.287Z,74.86
2022-12-31T12:58:01.548Z,74.69
2022-12-31T13:00:38.037Z,74.85
2022-12-31T13:04:07.428Z,74.97
2022-12-31T13:06:49.305Z,74.88
2022-12-31T13:09:45.891Z,74.98
2022-12-31T13:12:15.832Z,75.06
2022-12-31T13:14:56.088Z,74.88
2022-12-31T13:17:38.242Z,75.01
2022-12-31T13:20:19.227Z,74.98
2022-12-31T13:23:01.601Z,74.83
2022-12-31T13:26:02.992Z,74.80
2022-12-31T13:28:32.688Z,74.93
2022-12-31T13:31:06.823Z,74.83
2022-12-31T13:33:48.066Z,75.03
2022-12-31T13:36:19.769Z,74.86
2022-12-31T13:38:50.885Z,75.08
2022-12-31T13:41:41.305Z,74.90
2022-12-31T13:44:18.185Z,74.98
2022-12-31T13:46:51.560Z,75.09
2022-12-31T13:49:21.682Z,75.12
2022-12-31T13:51:56.482Z,75.10
2022-12-31T13:54:41.341Z,74.96
2022-12-31T13:57:29.748Z,75.04
2022-12-31T14:00:02.351Z,75.11
2022-12-31T14:02:45.566Z,75.23
2022-12-31T14:05:16.569Z,75.05
2022-12-31T14:07:49.351Z,75.02
2022-12-31T14:10:16.938Z,75.01
2022-12-31T14:13:13.297Z,75.25
2022-12-31T14:16:05.280Z,75.20
2022-12-31T14:18:50.993Z,75.00
2022-12-31T14:21:43.210Z,75.06
2022-12-31T14:24:16.320Z,75.20
2022-12-31T14:26:51.926Z,75.30
2022-12-31T14:29:23.090Z,75.30
2022-12-31T14:31:50.348Z,75.23
2022-12-31T14:34:35.981Z,75.44
2022-12-31T14:37:16.441Z,75.33
2022-12-31T14:39:55.136Z,75.30
2022-12-31T14:42:37.367Z,75.39
2022-12-31T14:45:32.470Z,75.19
2022-12-31T14:48:37.664Z,75.12
2022-12-31T14:51:05.689Z,75.24
2022-12-31T14:53:33.202Z,75.15
2022-12-31T14:56:01.651Z,75.28
2022-12-31T14:58:35.891Z,75.24
2022-12-31T15:01:19.364Z,75.09
2022-12-31T15:03:46.836Z,75.06
2022-12-31T15:06:28.185Z,75.02
2022-12-31T15:09:37.811Z,75.12
2022-12-31T15:12:11.052Z,75.10
2022-12-31T15:14:52.648Z,75.25
2022-12-31T15:17:44.986Z,75.24
2022-12-31T15:20:47.449Z,75.13
2022-12-31T15:23:31.818Z,75.27
2022-12-31T15:26:01.181Z,75.19
2022-12-31T15:28:34.991Z,75.09
2022-12-31T15:31:17.483Z,75.12
2022-12-31T15:34:06.921Z,75.15
2022-12-31T15:36:38.992Z,75.02
2022-12-31T15:39:12.451Z,75.16
2022-12-31T15:42:10.371Z,75.20
2022-12-31T15:44:51.609Z,75.31
2022-12-31T15:47:41.548Z,75.23
2022-12-31T15:50:16.193Z,75.13
2022-12-31T15:52:48.143Z,75.33
2022-12-31T15:55:48.611Z,75.16
2022-12-31T15:58:23.246Z,75.31
2022-12-31T16:01:07.182Z,75.03
2022-12-31T16:03:34.901Z,75.20
2022-12-31T16:06:04.887Z,75.13
2022-12-31T16:08:34.454Z,75.13
2022-12-31T16:11:04.976Z,75.09
2022-12-31T16:13:35.377Z,75.16
2022-12-31T16:16:06.367Z,75.24
2022-12-31T16:18:40.557Z,75.25
2022-12-31T16:21:23.045Z,75.15
2022-12-31T16:23:52.759Z,75.29
2022-12-31T16:26:20.160Z,75.13
2022-12-31T16:28:49.332Z,75.08
2022-12-31T16:31:20.128Z,75.02
2022-12-31T16:33:47.879Z,75.27
2022-12-31T16:36:21.338Z,75.22
2022-12-31T16:38:49.307Z,75.05
2022-12-31T16:41:21.885Z,75.10
2022-12-31T16:43:50.601Z,75.13
2022-12-31T16:46:28.918Z,75.13
2022-12-31T16:48:59.792Z,75.11
2022-12-31T16:51:32.673Z,75.05
2022-12-31T16:54:01.955Z,74.96
2022-12-31T16:56:33.577Z,75.16
2022-12-31T16:59:05.239Z,75.06
2022-12-31T17:01:35.990Z,75.01
2022-12-31T17:04:09.108Z,75.17
2022-12-31T17:06:36.518Z,75.02
2022-12-31T17:09:20.956Z,75.13
2022-12-31T17:11:51.347Z,75.13
2022-12-31T17:14:23.296Z,75.25
2022-12-31T17:17:02.237Z,75.03
2022-12-31T17:19:45.210Z,75.12
2022-12-31T17:22:34.272Z,75.10
2022-12-31T17:25:22.485Z,75.07
2022-12-31T17:28:18.449Z,75.05
2022-12-31T17:30:45.678Z,75.09
2022-12-31T17:33:12.885Z,75.08
2022-12-31T17:35:42.561Z,75.06
2022-12-31T17:38:22.080Z,75.07
2022-12-31T17:40:51.745Z,75.17
2022-12-31T17:43:23.946Z,75.13
2022-12-31T17:45:52.289Z,75.17
2022-12-31T17:48:20.636Z,75.02
2022-12-31T17:50:48.433Z,75.28
2022-12-31T17:53:16.019Z,75.24
2022-12-31T17:55:46.094Z,75.09
2022-12-31T17:58:34.511Z,75.14
2022-12-31T18:01:05.223Z,75.18
2022-12-31T18:03:32.773Z,75.21
2022-12-31T18:06:00.237Z,75.10
2022-12-31T18:08:27.489Z,75.01
2022-12-31T18:10:55.486Z,75.08
2022-12-31T18:13:27.449Z,75.01
2022-12-31T18:15:55.177Z,75.04
2022-12-31T18:18:26.584Z,75.13
2022-12-31T18:21:00.097Z,75.04
2022-12-31T18:23:41.653Z,75.26
2022-12-31T18:26:17.325Z,75.16
2022-12-31T18:28:44.913Z,74.95
2022-12-31T18:31:19.183Z,75.04
2022-12-31T18:33:47.328Z,75.07
2022-12-31T18:36:16.891Z,75.14
2022-12-31T18:38:44.291Z,75.16
2022-12-31T18:41:24.417Z,74.98
2022-12-31T18:43:51.573Z,75.00
2022-12-31T18:46:21.510Z,75.08
2022-12-31T18:48:48.952Z,74.98
2022-12-31T18:51:17.622Z,74.90
2022-12-31T18:53:45.423Z,74.86
2022-12-31T18:56:14.829Z,74.96
2022-12-31T18:58:42.753Z,75.02
2022-12-31T19:01:26.402Z,74.88
2022-12-31T19:03:58.217Z,74.97
2022-12-31T19:06:25.799Z,74.86
2022-12-31T19:08:53.028Z,74.95
2022-12-31T19:11:21.048Z,74.82
2022-12-31T19:13:48.774Z,74.90
2022-12-31T19:16:16.185Z,74.80
2022-12-31T19:18:43.298Z,74.93
2022-12-31T19:21:15.341Z,75.00
2022-12-31T19:23:42.725Z,74.78
2022-12-31T19:26:17.546Z,74.70
2022-12-31T19:28:45.979Z,74.76
2022-12-31T19:31:13.770Z,75.03
2022-12-31T19:33:41.193Z,74.74
2022-12-31T19:36:16.905Z,74.98
2022-12-31T19:38:45.058Z,74.84
2022-12-31T19:41:18.055Z,75.06
2022-12-31T19:43:46.757Z,74.86
2022-12-31T19:46:15.624Z,74.95
2022-12-31T19:48:43.304Z,74.93
2022-12-31T19:51:15.120Z,74.81
2022-12-31T19:53:42.206Z,75.01
2022-12-31T19:56:18.843Z,74.92
2022-12-31T19:58:46.397Z,74.78
2022-12-31T20:01:22.052Z,74.84
2022-12-31T20:03:50.067Z,75.05
2022-12-31T20:06:18.397Z,74.89
2022-12-31T20:08:46.677Z,74.94
2022-12-31T20:11:17.510Z,74.87
2022-12-31T20:13:45.196Z,74.87
2022-12-31T20:16:15.639Z,74.72
2022-12-31T20:18:46.333Z,74.76
2022-12-31T20:21:25.803Z,75.03
2022-12-31T20:23:54.403Z,74.87
2022-12-31T20:26:22.858Z,74.94
2022-12-31T20:28:51.019Z,75.02
2022-12-31T20:31:21.599Z,74.89
2022-12-31T20:33:49.381Z,74.86
2022-12-31T20:36:17.670Z,74.96
2022-12-31T20:38:45.065Z,74.95
2022-12-31T20:41:18.108Z,74.94
2022-12-31T20:43:46.177Z,75.08
2022-12-31T20:46:16.544Z,74.99
2022-12-31T20:48:45.162Z,74.85
2022-12-31T20:51:14.191Z,75.06
2022-12-31T20:54:05.938Z,75.04
2022-12-31T20:56:35.261Z,74.92
2022-12-31T20:59:03.541Z,75.04
2022-12-31T21:01:55.104Z,75.02
2022-12-31T21:04:18.323Z,75.03
2022-12-31T21:06:45.628Z,74.88
2022-12-31T21:09:12.723Z,74.79
2022-12-31T21:11:58.897Z,75.02
2022-12-31T21:14:26.078Z,75.07
2022-12-31T21:16:53.152Z,74.93
2022-12-31T21:19:20.197Z,74.84
2022-12-31T21:21:48.359Z,74.84
2022-12-31T21:24:20.206Z,74.88
2022-12-31T21:26:50.601Z,74.94
2022-12-31T21:29:17.711Z,74.91
2022-12-31T21:31:44.810Z,74.95
2022-12-31T21:34:11.929Z,74.90
2022-12-31T21:36:39.010Z,74.89
2022-12-31T21:39:06.026Z,74.95
2022-12-31T21:41:51.120Z,74.68
2022-12-31T21:44:20.961Z,74.82
2022-12-31T21:47:25.187Z,74.80
2022-12-31T21:49:36.434Z,74.62
2022-12-31T21:52:22.634Z,74.68
2022-12-31T21:55:08.341Z,74.73
2022-12-31T21:57:59.040Z,74.76
2022-12-31T22:00:43.157Z,74.57
2022-12-31T22:03:24.494Z,74.81
2022-12-31T22:06:09.546Z,74.80
2022-12-31T22:08:37.182Z,74.91
2022-12-31T22:11:04.438Z,74.81
2022-12-31T22:13:32.304Z,74.68
2022-12-31T22:16:04.914Z,74.63
2022-12-31T22:18:39.183Z,74.73
2022-12-31T22:21:19.333Z,74.67
2022-12-31T22:23:49.691Z,74.72
2022-12-31T22:26:19.134Z,74.55
2022-12-31T22:28:47.203Z,74.76
2022-12-31T22:31:24.674Z,74.52
2022-12-31T22:33:52.490Z,74.58
2022-12-31T22:36:22.291Z,74.65
2022-12-31T22:38:50.973Z,74.54
2022-12-31T22:41:20.781Z,74.53
2022-12-31T22:43:51.794Z,74.76
2022-12-31T22:46:21.974Z,74.66
2022-12-31T22:48:49.552Z,74.56
2022-12-31T22:51:17.944Z,74.64
2022-12-31T22:53:45.795Z,74.54
2022-12-31T22:56:16.248Z,74.71
2022-12-31T22:58:44.227Z,74.59
2022-12-31T23:01:19.204Z,74.62
2022-12-31T23:03:47.327Z,74.60
2022-12-31T23:06:15.208Z,74.54
2022-12-31T23:09:02.442Z,74.42
2022-12-31T23:11:30.111Z,74.47
2022-12-31T23:14:16.121Z,74.31
2022-12-31T23:17:30.486Z,74.52
2022-12-31T23:20:07.621Z,74.40
2022-12-31T23:22:53.354Z,74.48
2022-12-31T23:25:20.657Z,74.44
2022-12-31T23:27:47.757Z,74.48
2022-12-31T23:30:14.861Z,74.56
2022-12-31T23:32:42.311Z,74.41
2022-12-31T23:35:10.276Z,74.52
2022-12-31T23:37:37.669Z,74.49
2022-12-31T23:40:05.304Z,74.49
2022-12-31T23:42:32.425Z,74.38
2022-12-31T23:44:59.475Z,74.47
2022-12-31T23:47:26.578Z,74.38
2022-12-31T23:49:53.702Z,74.38
2022-12-31T23:52:20.903Z,74.47
2022-12-31T23:54:48.127Z,74.38
2022-12-31T23:57:15.352Z,74.45
2022-12-31T23:59:42.452Z,74.32
